Beaverton, Canada
Current Conditions -  °F | °C
As of 5:00 AM on Wednesday 22 Oct 2014 (Local Time) from CYQA Reporting Station
Clear Clear  
Wind Chill: 32°   Ceiling: Unl
Heat Index: 32°   Visibility: 9mi
Dew Point: 32°   Wind: 3mph
Humidity: 100%   Direction: 350°N
Pressure: 30.24"   Gusts: NA
Location:  44.43°N, 79.15°W
Report Text: CYQA 220900Z AUTO 35003KT 9SM CLR 00/00 A3024 RMK SLP250
Loading
Personal Weather Stations






























Interactive Weather Map
Tropical Storm Tracking
New forecast layout! Learn more

10-Day Weather Forecast

Advertisements
Track Severe Weather on mobile